Carbon Cliff, Illinois
Current Conditions -  °F | °C
As of 6:52 AM on Saturday 25 Oct 2014 (Local Time) from KMLI Reporting Station
Moderate Fog Moderate Fog  
Wind Chill: 54°   Ceiling: 200
Heat Index: 54°   Visibility: 0.5mi
Dew Point: 53°   Wind: 7mph
Humidity: 97%   Direction: 280°W
Pressure: 29.97"   Gusts: NA
Location:  41.49°N, 90.39°W
Report Text: KMLI 251152Z 28006KT 1/2SM R09/2600V4000FT FG VV002 12/12 A2997 RMK AO2 SLP148 T01220117 10133 20089 53009 $
Loading
Personal Weather Stations






























Interactive Weather Map
Tropical Storm Tracking
New forecast layout! Learn more

10-Day Weather Forecast

Advertisements
Track Severe Weather on mobile